createdAt,value
2023-02-13T00:01:22.762Z,150074.78
2023-02-13T00:03:48.626Z,150060.94
2023-02-13T00:06:14.471Z,150049.59
2023-02-13T00:08:40.335Z,150065.97
2023-02-13T00:11:06.158Z,150083.63
2023-02-13T00:13:34.604Z,150076.09
2023-02-13T00:16:02.900Z,150074.78
2023-02-13T00:18:29.963Z,150086.16
2023-02-13T00:20:59.316Z,150088.66
2023-02-13T00:23:25.401Z,150060.94
2023-02-13T00:25:51.220Z,150048.34
2023-02-13T00:28:17.055Z,150024.41
2023-02-13T00:30:42.938Z,150019.31
2023-02-13T00:33:08.714Z,150016.81
2023-02-13T00:35:35.296Z,150013.03
2023-02-13T00:38:01.130Z,150059.69
2023-02-13T00:40:26.926Z,150008.00
2023-02-13T00:42:52.715Z,149994.13
2023-02-13T00:45:18.569Z,149980.25
2023-02-13T00:47:44.404Z,149960.09
2023-02-13T00:50:10.349Z,149961.38
2023-02-13T00:52:36.155Z,149955.06
2023-02-13T00:55:02.007Z,149980.25
2023-02-13T00:57:28.606Z,150006.75
2023-02-13T00:59:54.371Z,150006.75
2023-02-13T01:02:20.182Z,150008.00
2023-02-13T01:04:46.059Z,150001.69
2023-02-13T01:07:11.852Z,149992.88
2023-02-13T01:09:37.605Z,150009.28
2023-02-13T01:12:03.473Z,149979.00
2023-02-13T01:14:29.698Z,149951.31
2023-02-13T01:16:56.052Z,149967.66
2023-02-13T01:19:22.244Z,149982.78
2023-02-13T01:21:48.427Z,149995.41
2023-02-13T01:24:14.284Z,149985.28
2023-02-13T01:26:40.241Z,149997.91
2023-02-13T01:29:06.213Z,149999.16
2023-02-13T01:31:32.195Z,149981.53
2023-02-13T01:33:59.162Z,149975.22
2023-02-13T01:36:25.918Z,150001.69
2023-02-13T01:38:53.559Z,150010.53
2023-02-13T01:41:19.720Z,149984.03
2023-02-13T01:43:51.078Z,149994.13
2023-02-13T01:46:38.820Z,149970.22
2023-02-13T01:49:20.141Z,149996.66
2023-02-13T01:51:50.371Z,149977.75
2023-02-13T01:54:30.200Z,149989.09
2023-02-13T01:57:02.640Z,150008.00
2023-02-13T01:59:33.482Z,149970.22
2023-02-13T02:02:00.531Z,149986.59
2023-02-13T02:04:31.421Z,149946.22
2023-02-13T02:07:01.891Z,149951.31
2023-02-13T02:09:31.989Z,149937.44
2023-02-13T02:12:21.805Z,149944.97
2023-02-13T02:14:48.917Z,149927.31
2023-02-13T02:17:14.782Z,149948.75
2023-02-13T02:20:08.393Z,149947.47
2023-02-13T02:22:45.991Z,149972.72
2023-02-13T02:25:39.050Z,149951.31
2023-02-13T02:28:30.769Z,149947.47
2023-02-13T02:31:08.614Z,149962.63
2023-02-13T02:33:58.890Z,149952.56
2023-02-13T02:36:35.549Z,149952.56
2023-02-13T02:39:32.175Z,149962.63
2023-02-13T02:42:17.926Z,149939.94
2023-02-13T02:45:02.038Z,149953.81
2023-02-13T02:47:56.686Z,149975.22
2023-02-13T02:50:46.867Z,149958.84
2023-02-13T02:53:30.757Z,149970.22
2023-02-13T02:56:10.120Z,149948.75
2023-02-13T02:59:09.755Z,149951.31
2023-02-13T03:02:09.358Z,149943.72
2023-02-13T03:04:58.278Z,149962.63
2023-02-13T03:07:24.635Z,149979.00
2023-02-13T03:10:17.830Z,149986.59
2023-02-13T03:13:09.461Z,149982.78
2023-02-13T03:15:58.611Z,149986.59
2023-02-13T03:18:43.505Z,149971.47
2023-02-13T03:21:35.939Z,149982.78
2023-02-13T03:24:10.930Z,149986.59
2023-02-13T03:27:14.265Z,150002.94
2023-02-13T03:30:06.879Z,149922.31
2023-02-13T03:32:38.155Z,149938.69
2023-02-13T03:35:38.242Z,149894.56
2023-02-13T03:38:13.634Z,149874.41
2023-02-13T03:41:09.921Z,149897.13
2023-02-13T03:43:49.186Z,149868.13
2023-02-13T03:46:18.258Z,149858.03
2023-02-13T03:49:04.246Z,149894.56
2023-02-13T03:51:59.775Z,149880.75
2023-02-13T03:55:00.940Z,149879.47
2023-02-13T03:57:48.224Z,149860.59
2023-02-13T04:00:15.542Z,149853.00
2023-02-13T04:02:53.507Z,149879.47
2023-02-13T04:05:25.974Z,149873.16
2023-02-13T04:07:51.878Z,149868.13
2023-02-13T04:10:19.152Z,149858.03
2023-02-13T04:13:11.030Z,149861.84
2023-02-13T04:15:55.591Z,149859.28
2023-02-13T04:18:26.401Z,149858.03
2023-02-13T04:20:52.294Z,149865.63
2023-02-13T04:23:18.811Z,149840.38
2023-02-13T04:25:47.916Z,149856.75
2023-02-13T04:28:13.987Z,149832.84
2023-02-13T04:30:39.963Z,149837.88
2023-02-13T04:33:05.911Z,149863.09
2023-02-13T04:35:31.727Z,149846.72
2023-02-13T04:37:57.590Z,149851.75
2023-02-13T04:40:23.630Z,149879.47
2023-02-13T04:42:49.698Z,149818.97
2023-02-13T04:45:16.222Z,149840.38
2023-02-13T04:47:42.182Z,149858.03
2023-02-13T04:50:08.625Z,149864.34
2023-02-13T04:52:34.454Z,149849.22
2023-02-13T04:55:00.300Z,149856.75
2023-02-13T04:57:26.080Z,149855.50
2023-02-13T04:59:51.940Z,149871.91
2023-02-13T05:02:17.802Z,149870.63
2023-02-13T05:04:43.749Z,149842.94
2023-02-13T05:07:09.664Z,149822.75
2023-02-13T05:09:35.438Z,149832.84
2023-02-13T05:12:01.329Z,149851.75
2023-02-13T05:14:27.329Z,149850.47
2023-02-13T05:16:53.231Z,149831.59
2023-02-13T05:19:19.598Z,149842.94
2023-02-13T05:22:04.619Z,149841.66
2023-02-13T05:24:31.016Z,149839.13
2023-02-13T05:26:56.891Z,149855.50
2023-02-13T05:29:23.076Z,149844.22
2023-02-13T05:31:53.037Z,149847.97
2023-02-13T05:34:23.391Z,149853.00
2023-02-13T05:36:49.826Z,149869.38
2023-02-13T05:39:16.158Z,149870.63
2023-02-13T05:41:43.426Z,149860.59
2023-02-13T05:44:09.362Z,149826.56
2023-02-13T05:46:39.066Z,149844.22
2023-02-13T05:49:06.067Z,149849.22
2023-02-13T05:51:32.273Z,149826.56
2023-02-13T05:53:58.212Z,149851.75
2023-02-13T05:56:24.439Z,149822.75
2023-02-13T05:58:54.181Z,149808.94
2023-02-13T06:01:20.996Z,149817.72
2023-02-13T06:03:47.106Z,149822.75
2023-02-13T06:06:13.346Z,149807.69
2023-02-13T06:08:39.289Z,149829.09
2023-02-13T06:11:05.209Z,149835.34
2023-02-13T06:13:31.272Z,149803.84
2023-02-13T06:15:57.274Z,149812.69
2023-02-13T06:18:23.155Z,149805.13
2023-02-13T06:20:49.137Z,149836.63
2023-02-13T06:23:15.548Z,149825.31
2023-02-13T06:25:41.416Z,149795.06
2023-02-13T06:28:07.445Z,149782.44
2023-02-13T06:30:33.524Z,149768.59
2023-02-13T06:32:59.870Z,149757.28
2023-02-13T06:35:26.167Z,149743.41
2023-02-13T06:37:52.206Z,149749.69
2023-02-13T06:40:18.429Z,149743.41
2023-02-13T06:42:45.005Z,149745.94
2023-02-13T06:45:12.066Z,149738.41
2023-02-13T06:47:42.909Z,149728.31
2023-02-13T06:50:09.558Z,149730.81
2023-02-13T06:52:35.480Z,149748.44
2023-02-13T06:55:01.660Z,149758.53
2023-02-13T06:57:32.206Z,149777.44
2023-02-13T07:00:05.131Z,149758.53
2023-02-13T07:02:32.183Z,149737.13
2023-02-13T07:04:58.261Z,149756.03
2023-02-13T07:07:24.207Z,149749.69
2023-02-13T07:09:50.333Z,149763.56
2023-02-13T07:12:16.326Z,149753.50
2023-02-13T07:14:42.191Z,149793.81
2023-02-13T07:17:10.324Z,149774.91
2023-02-13T07:19:36.175Z,149759.78
2023-02-13T07:22:02.098Z,149745.94
2023-02-13T07:24:28.034Z,149720.75
2023-02-13T07:26:53.949Z,149754.78
2023-02-13T07:29:19.854Z,149769.84
2023-02-13T07:31:45.717Z,149758.53
2023-02-13T07:34:11.662Z,149767.34
2023-02-13T07:36:37.498Z,149747.19
2023-02-13T07:39:03.504Z,149740.91
2023-02-13T07:41:29.325Z,149753.50
2023-02-13T07:43:55.258Z,149792.56
2023-02-13T07:46:21.278Z,149779.94
2023-02-13T07:48:47.313Z,149815.22
2023-02-13T07:51:13.505Z,149816.47
2023-02-13T07:53:39.303Z,149858.03
2023-02-13T07:56:09.438Z,149841.66
2023-02-13T07:58:37.460Z,149829.09
2023-02-13T08:01:10.179Z,149840.38
2023-02-13T08:03:36.797Z,149854.25
2023-02-13T08:06:03.355Z,149873.16
2023-02-13T08:08:29.254Z,149893.31
2023-02-13T08:11:14.038Z,149942.47
2023-02-13T08:13:41.151Z,149921.03
2023-02-13T08:16:07.118Z,149932.41
2023-02-13T08:18:33.052Z,149948.75
2023-02-13T08:21:01.727Z,149970.22
2023-02-13T08:23:27.603Z,150002.94
2023-02-13T08:25:54.987Z,150025.66
2023-02-13T08:28:21.655Z,150019.31
2023-02-13T08:30:47.573Z,150033.19
2023-02-13T08:33:13.402Z,150062.22
2023-02-13T08:35:39.207Z,150062.22
2023-02-13T08:38:05.325Z,150076.09
2023-02-13T08:40:32.218Z,150081.13
2023-02-13T08:43:02.727Z,150098.78
2023-02-13T08:45:29.072Z,150105.06
2023-02-13T08:47:56.931Z,150108.84
2023-02-13T08:50:23.442Z,150116.41
2023-02-13T08:52:49.267Z,150164.31
2023-02-13T08:55:15.369Z,150142.88
2023-02-13T08:57:41.302Z,150169.38
2023-02-13T09:00:08.329Z,150216.03
2023-02-13T09:02:34.259Z,150219.84
2023-02-13T09:05:00.131Z,150209.72
2023-02-13T09:07:25.979Z,150246.31
2023-02-13T09:09:51.800Z,150248.81
2023-02-13T09:12:17.753Z,150260.19
2023-02-13T09:14:43.644Z,150247.56
2023-02-13T09:17:09.611Z,150281.63
2023-02-13T09:19:38.194Z,150309.47
2023-02-13T09:22:04.016Z,150364.97
2023-02-13T09:24:29.936Z,150315.75
2023-02-13T09:26:56.001Z,150358.63
2023-02-13T09:29:22.055Z,150377.56
2023-02-13T09:31:48.150Z,150417.97
2023-02-13T09:34:14.194Z,150424.25
2023-02-13T09:36:40.162Z,150443.19
2023-02-13T09:39:06.104Z,150498.72
2023-02-13T09:41:36.188Z,150506.34
2023-02-13T09:44:36.812Z,150561.88
2023-02-13T09:47:42.199Z,150632.59
2023-02-13T09:50:28.953Z,150717.19
2023-02-13T09:52:56.470Z,150811.97
2023-02-13T09:55:40.326Z,150857.44
2023-02-13T09:58:19.946Z,151040.78
2023-02-13T10:00:50.971Z,151277.31
2023-02-13T10:03:43.655Z,151578.66
2023-02-13T10:06:17.853Z,152067.88
2023-02-13T10:08:43.627Z,152428.34
2023-02-13T10:11:39.981Z,153462.06
2023-02-13T10:14:21.488Z,154794.84
2023-02-13T10:16:54.920Z,155636.25
2023-02-13T10:19:46.150Z,155935.88
2023-02-13T10:22:22.836Z,156066.53
2023-02-13T10:25:15.546Z,155971.75
2023-02-13T10:27:49.251Z,155841.06
2023-02-13T10:30:26.223Z,156622.88
2023-02-13T10:33:29.789Z,157173.44
2023-02-13T10:35:55.870Z,157416.22
2023-02-13T10:38:23.006Z,156716.50
2023-02-13T10:41:40.268Z,156079.31
2023-02-13T10:44:11.747Z,156249.78
2023-02-13T10:47:25.436Z,156944.94
2023-02-13T10:50:07.457Z,156783.25
2023-02-13T10:52:44.946Z,157174.78
2023-02-13T10:55:20.152Z,157075.88
2023-02-13T10:58:18.205Z,157475.28
2023-02-13T11:01:14.433Z,157173.44
2023-02-13T11:03:40.431Z,156907.72
2023-02-13T11:06:08.667Z,156853.81
2023-02-13T11:08:43.610Z,156887.22
2023-02-13T11:11:29.667Z,156923.13
2023-02-13T11:14:19.990Z,156779.41
2023-02-13T11:17:05.358Z,157111.81
2023-02-13T11:19:36.043Z,157328.84
2023-02-13T11:22:07.423Z,157432.94
2023-02-13T11:24:34.915Z,157177.31
2023-02-13T11:27:12.892Z,157325.00
2023-02-13T11:29:57.904Z,156891.06
2023-02-13T11:32:30.025Z,156857.63
2023-02-13T11:34:56.099Z,157254.34
2023-02-13T11:37:32.218Z,157260.75
2023-02-13T11:39:59.955Z,157111.81
2023-02-13T11:42:30.683Z,157156.78
2023-02-13T11:45:22.787Z,157199.13
2023-02-13T11:47:48.854Z,156905.19
2023-02-13T11:50:25.367Z,156565.16
2023-02-13T11:53:00.134Z,156457.41
2023-02-13T11:55:37.634Z,156844.78
2023-02-13T11:58:09.543Z,156012.72
2023-02-13T12:00:41.847Z,155874.41
2023-02-13T12:03:28.751Z,155549.19
2023-02-13T12:06:07.768Z,155668.25
2023-02-13T12:08:37.507Z,156217.72
2023-02-13T12:11:19.886Z,156712.66
2023-02-13T12:13:47.181Z,156615.22
2023-02-13T12:16:28.394Z,155969.13
2023-02-13T12:18:58.613Z,155893.59
2023-02-13T12:21:49.730Z,155624.75
2023-02-13T12:24:30.855Z,155696.38
2023-02-13T12:27:14.523Z,155780.91
2023-02-13T12:29:49.740Z,155771.97
2023-02-13T12:32:21.600Z,156270.28
2023-02-13T12:35:25.582Z,156873.03
2023-02-13T12:37:57.030Z,157495.84
2023-02-13T12:40:29.544Z,157033.53
2023-02-13T12:43:09.831Z,156840.97
2023-02-13T12:46:17.307Z,156737.03
2023-02-13T12:49:15.422Z,157033.53
2023-02-13T12:51:49.854Z,156360.03
2023-02-13T12:54:32.490Z,156543.34
2023-02-13T12:57:22.479Z,156504.91
2023-02-13T12:59:53.378Z,157043.75
2023-02-13T13:02:34.144Z,157146.47
2023-02-13T13:05:05.704Z,156721.66
2023-02-13T13:07:55.760Z,157045.03
2023-02-13T13:10:39.375Z,157212.00
2023-02-13T13:13:27.118Z,155975.56
2023-02-13T13:15:59.062Z,156060.13
2023-02-13T13:18:40.074Z,156312.53
2023-02-13T13:21:05.948Z,155741.25
2023-02-13T13:23:59.586Z,155420.00
2023-02-13T13:26:36.552Z,155709.19
2023-02-13T13:29:10.176Z,155834.69
2023-02-13T13:31:36.947Z,156329.25
2023-02-13T13:34:12.524Z,156439.47
2023-02-13T13:36:53.856Z,156162.59
2023-02-13T13:39:44.943Z,155752.78
2023-02-13T13:42:16.376Z,156143.38
2023-02-13T13:45:03.909Z,155450.72
2023-02-13T13:47:37.334Z,155226.91
2023-02-13T13:50:06.260Z,154994.19
2023-02-13T13:52:36.720Z,155132.22
2023-02-13T13:55:03.889Z,154728.41
2023-02-13T13:57:32.714Z,153985.69
2023-02-13T14:00:20.505Z,153515.53
2023-02-13T14:02:50.656Z,153350.00
2023-02-13T14:05:27.396Z,153096.78
2023-02-13T14:07:56.654Z,152843.75
2023-02-13T14:10:25.177Z,152789.09
2023-02-13T14:12:57.160Z,152637.88
2023-02-13T14:15:37.955Z,152598.50
2023-02-13T14:18:17.676Z,152635.34
2023-02-13T14:20:50.917Z,152593.41
2023-02-13T14:23:25.676Z,152474.06
2023-02-13T14:26:16.371Z,152394.00
2023-02-13T14:28:49.349Z,152272.19
2023-02-13T14:31:29.049Z,152182.13
2023-02-13T14:34:04.667Z,152174.47
2023-02-13T14:36:33.710Z,152152.91
2023-02-13T14:39:20.304Z,152173.22
2023-02-13T14:41:55.074Z,152128.84
2023-02-13T14:44:39.424Z,152099.66
2023-02-13T14:47:17.801Z,152069.16
2023-02-13T14:49:45.134Z,152076.78
2023-02-13T14:52:25.570Z,151951.25
2023-02-13T14:55:20.542Z,151936.03
2023-02-13T14:57:53.585Z,151941.09
2023-02-13T15:00:27.610Z,151914.47
2023-02-13T15:03:23.232Z,151905.59
2023-02-13T15:05:55.746Z,151900.53
2023-02-13T15:08:47.940Z,151898.00
2023-02-13T15:11:36.210Z,151924.59
2023-02-13T15:14:20.535Z,151898.00
2023-02-13T15:16:54.916Z,151846.03
2023-02-13T15:19:23.047Z,151859.97
2023-02-13T15:22:00.784Z,151848.56
2023-02-13T15:24:33.954Z,151871.34
2023-02-13T15:27:06.590Z,151808.00
2023-02-13T15:29:44.236Z,151799.13
2023-02-13T15:32:18.542Z,151795.31
2023-02-13T15:34:47.553Z,151782.63
2023-02-13T15:37:24.638Z,151789.00
2023-02-13T15:39:50.666Z,151778.84
2023-02-13T15:42:16.596Z,151772.53
2023-02-13T15:44:45.532Z,151767.47
2023-02-13T15:47:38.811Z,151742.06
2023-02-13T15:50:16.834Z,151752.25
2023-02-13T15:52:42.948Z,151731.94
2023-02-13T15:55:21.837Z,151714.22
2023-02-13T15:57:49.180Z,151715.47
2023-02-13T16:00:23.719Z,151730.69
2023-02-13T16:02:51.775Z,151677.47
2023-02-13T16:05:26.536Z,151690.09
2023-02-13T16:08:26.003Z,151687.56
2023-02-13T16:11:28.378Z,151673.63
2023-02-13T16:14:06.453Z,151626.78
2023-02-13T16:16:51.056Z,151612.84
2023-02-13T16:19:55.631Z,151558.38
2023-02-13T16:22:33.445Z,151577.38
2023-02-13T16:25:11.089Z,151525.47
2023-02-13T16:27:43.651Z,151510.25
2023-02-13T16:30:22.774Z,151409.00
2023-02-13T16:32:48.722Z,151426.72
2023-02-13T16:35:22.454Z,151415.31
2023-02-13T16:37:56.893Z,151368.47
2023-02-13T16:40:41.427Z,151355.84
2023-02-13T16:43:32.169Z,151321.63
2023-02-13T16:46:18.457Z,151286.19
2023-02-13T16:48:45.735Z,151231.78
2023-02-13T16:51:12.689Z,151212.81
2023-02-13T16:53:39.601Z,151206.44
2023-02-13T16:56:08.609Z,151187.47
2023-02-13T16:58:34.996Z,151159.66
2023-02-13T17:01:03.609Z,151126.78
2023-02-13T17:03:31.416Z,151083.78
2023-02-13T17:06:01.622Z,151077.44
2023-02-13T17:08:31.721Z,151063.56
2023-02-13T17:11:04.919Z,151012.97
2023-02-13T17:13:32.555Z,150992.75
2023-02-13T17:15:59.464Z,150992.75
2023-02-13T17:18:28.356Z,150995.28
2023-02-13T17:20:54.450Z,150947.22
2023-02-13T17:23:23.119Z,150958.63
2023-02-13T17:25:50.638Z,150944.72
2023-02-13T17:28:20.333Z,150954.78
2023-02-13T17:30:48.456Z,150975.06
2023-02-13T17:33:19.439Z,151005.38
2023-02-13T17:35:45.318Z,150977.59
2023-02-13T17:38:11.299Z,151018.03
2023-02-13T17:40:37.765Z,151005.38
2023-02-13T17:43:03.747Z,150985.16
2023-02-13T17:45:31.673Z,150961.16
2023-02-13T17:47:58.077Z,150916.88
2023-02-13T17:50:26.013Z,150923.22
2023-02-13T17:52:52.187Z,150918.13
2023-02-13T17:55:24.850Z,150882.69
2023-02-13T17:57:52.194Z,150871.34
2023-02-13T18:00:20.151Z,150854.91
2023-02-13T18:02:48.306Z,150854.91
2023-02-13T18:05:15.938Z,150854.91
2023-02-13T18:07:42.574Z,150844.78
2023-02-13T18:10:16.289Z,150835.97
2023-02-13T18:12:43.198Z,150790.47
2023-02-13T18:15:10.150Z,150787.94
2023-02-13T18:17:37.174Z,150786.69
2023-02-13T18:20:07.419Z,150784.16
2023-02-13T18:22:33.649Z,150762.69
2023-02-13T18:25:01.177Z,150742.47
2023-02-13T18:27:27.576Z,150747.50
2023-02-13T18:29:55.381Z,150742.47
2023-02-13T18:32:22.240Z,150799.31
2023-02-13T18:34:49.703Z,150794.28
2023-02-13T18:37:16.901Z,150782.91
2023-02-13T18:39:43.857Z,150777.84
2023-02-13T18:42:12.567Z,150760.16
2023-02-13T18:44:39.438Z,150768.97
2023-02-13T18:47:05.425Z,150801.84
2023-02-13T18:49:31.466Z,150729.81
2023-02-13T18:51:57.737Z,150751.28
2023-02-13T18:54:24.117Z,150803.09
2023-02-13T18:56:50.519Z,150781.63
2023-02-13T18:59:17.848Z,150777.84
2023-02-13T19:01:44.354Z,150785.41
2023-02-13T19:04:10.952Z,150791.72
2023-02-13T19:06:41.889Z,150787.94
2023-02-13T19:09:08.604Z,150803.09
2023-02-13T19:11:35.019Z,150801.84
2023-02-13T19:14:01.769Z,150779.13
2023-02-13T19:16:33.206Z,150763.94
2023-02-13T19:19:01.652Z,150781.63
2023-02-13T19:21:29.457Z,150790.47
2023-02-13T19:23:55.314Z,150753.81
2023-02-13T19:26:23.647Z,150747.50
2023-02-13T19:28:50.323Z,150717.19
2023-02-13T19:31:25.214Z,150722.28
2023-02-13T19:33:51.777Z,150728.56
2023-02-13T19:36:23.182Z,150732.34
2023-02-13T19:39:03.977Z,150707.09
2023-02-13T19:41:30.455Z,150665.38
2023-02-13T19:43:56.738Z,150681.81
2023-02-13T19:46:25.424Z,150708.38
2023-02-13T19:48:52.099Z,150679.28
2023-02-13T19:51:20.811Z,150622.47
2023-02-13T19:53:47.262Z,150635.13
2023-02-13T19:56:14.034Z,150636.38
2023-02-13T19:58:41.690Z,150617.44
2023-02-13T20:01:07.650Z,150607.31
2023-02-13T20:03:33.546Z,150580.81
2023-02-13T20:06:04.840Z,150550.50
2023-02-13T20:08:30.830Z,150522.69
2023-02-13T20:10:57.167Z,150541.63
2023-02-13T20:13:23.255Z,150551.75
2023-02-13T20:15:49.275Z,150571.94
2023-02-13T20:18:19.329Z,150516.41
2023-02-13T20:20:46.868Z,150540.38
2023-02-13T20:23:12.915Z,150559.31
2023-02-13T20:25:39.000Z,150516.41
2023-02-13T20:28:04.962Z,150493.69
2023-02-13T20:30:31.004Z,150462.13
2023-02-13T20:32:57.443Z,150488.66
2023-02-13T20:35:23.556Z,150479.78
2023-02-13T20:37:49.434Z,150469.69
2023-02-13T20:40:15.371Z,150450.75
2023-02-13T20:42:41.458Z,150474.75
2023-02-13T20:45:07.731Z,150459.59
2023-02-13T20:47:33.591Z,150443.19
2023-02-13T20:49:59.594Z,150468.41
2023-02-13T20:52:25.745Z,150472.25
2023-02-13T20:54:51.922Z,150474.75
2023-02-13T20:57:17.882Z,150489.91
2023-02-13T20:59:44.301Z,150469.69
2023-02-13T21:02:11.729Z,150491.19
2023-02-13T21:04:37.673Z,150483.56
2023-02-13T21:07:08.375Z,150478.53
2023-02-13T21:09:35.834Z,150498.72
2023-02-13T21:12:02.317Z,150463.38
2023-02-13T21:14:28.356Z,150468.41
2023-02-13T21:16:54.353Z,150468.41
2023-02-13T21:19:20.385Z,150435.63
2023-02-13T21:21:46.786Z,150444.47
2023-02-13T21:24:16.960Z,150445.72
2023-02-13T21:26:44.256Z,150473.50
2023-02-13T21:29:10.488Z,150458.34
2023-02-13T21:31:39.925Z,150414.16
2023-02-13T21:34:08.146Z,150450.75
2023-02-13T21:36:37.380Z,150457.09
2023-02-13T21:39:05.440Z,150440.69
2023-02-13T21:41:31.410Z,150435.63
2023-02-13T21:43:58.224Z,150397.72
2023-02-13T21:46:29.234Z,150401.56
2023-02-13T21:49:06.421Z,150370.00
2023-02-13T21:51:34.969Z,150376.28
2023-02-13T21:54:02.151Z,150364.97
2023-02-13T21:56:35.041Z,150375.03
2023-02-13T21:59:01.478Z,150373.78
2023-02-13T22:01:29.926Z,150377.56
2023-02-13T22:04:00.348Z,150363.72
2023-02-13T22:06:28.215Z,150385.16
2023-02-13T22:08:59.182Z,150356.09
2023-02-13T22:11:25.585Z,150319.53
2023-02-13T22:13:56.599Z,150353.59
2023-02-13T22:16:23.265Z,150370.00
2023-02-13T22:18:49.984Z,150335.94
2023-02-13T22:21:19.509Z,150301.84
2023-02-13T22:23:46.458Z,150300.59
2023-02-13T22:26:37.193Z,150337.19
2023-02-13T22:29:14.904Z,150323.28
2023-02-13T22:31:41.254Z,150271.50
2023-02-13T22:34:07.384Z,150300.59
2023-02-13T22:36:38.140Z,150294.31
2023-02-13T22:39:04.156Z,150317.00
2023-02-13T22:41:30.104Z,150322.03
2023-02-13T22:43:56.720Z,150311.97
2023-02-13T22:46:25.008Z,150275.34
2023-02-13T22:48:51.740Z,150248.81
2023-02-13T22:51:20.236Z,150242.53
2023-02-13T22:53:47.704Z,150236.19
2023-02-13T22:56:13.761Z,150238.75
2023-02-13T22:58:39.908Z,150247.56
2023-02-13T23:01:11.939Z,150209.72
2023-02-13T23:03:38.777Z,150219.84
2023-02-13T23:06:05.622Z,150203.44
2023-02-13T23:08:31.604Z,150126.47
2023-02-13T23:11:16.164Z,150095.00
2023-02-13T23:13:44.044Z,150135.34
2023-02-13T23:16:13.590Z,150142.88
2023-02-13T23:18:40.225Z,150127.75
2023-02-13T23:21:07.554Z,150096.25
2023-02-13T23:23:37.830Z,150111.41
2023-02-13T23:26:05.356Z,150097.50
2023-02-13T23:28:31.349Z,150111.41
2023-02-13T23:30:57.636Z,150146.66
2023-02-13T23:33:23.608Z,150178.19
2023-02-13T23:35:49.419Z,150176.94
2023-02-13T23:38:15.283Z,150183.28
2023-02-13T23:40:41.125Z,150199.63
2023-02-13T23:43:07.178Z,150208.47
2023-02-13T23:45:33.030Z,150190.81
2023-02-13T23:47:58.798Z,150173.16
2023-02-13T23:50:24.652Z,150188.31
2023-02-13T23:52:50.516Z,150204.69
2023-02-13T23:55:16.652Z,150181.97
2023-02-13T23:57:42.910Z,150171.91
